Time;durP1;ratioP1;P1;durP2;ratioP2;P2;SDS_P1;SDS_P2;PMS_P1;PMS_P2;Temp;Humidity;BMP_temperature;BMP_pressure;BME280_temperature;BME280_humidity;BME280_pressure;Samples;Min_cycle;Max_cycle;Signal;HPM_P1;HPM_P2
2023/04/05 00:02:02;;;;;;;0.00;0.00;;;;;;;;;;6277893;22;20018;-70
2023/04/05 00:04:33;;;;;;;1.65;1.55;;;;;;;;;;6250560;22;20509;-70
2023/04/05 00:07:07;;;;;;;0.00;0.00;;;;;;;;;;6277171;22;20020;-70
2023/04/05 00:09:35;;;;;;;0.00;0.00;;;;;;;;;;6277291;22;20019;-70
2023/04/05 00:12:02;;;;;;;0.00;0.00;;;;;;;;;;6277433;22;20015;-69
2023/04/05 00:14:30;;;;;;;0.00;0.00;;;;;;;;;;6277372;22;20020;-69
2023/04/05 00:16:57;;;;;;;0.00;0.00;;;;;;;;;;6277432;22;20016;-70
2023/04/05 00:19:25;;;;;;;0.00;0.00;;;;;;;;;;6277391;22;20012;-69
2023/04/05 00:21:53;;;;;;;0.00;0.00;;;;;;;;;;6277107;22;20464;-70
2023/04/05 00:24:20;;;;;;;0.00;0.00;;;;;;;;;;6250126;22;20022;-70
2023/04/05 00:26:48;;;;;;;0.00;0.00;;;;;;;;;;6277576;22;20066;-70
2023/04/05 00:29:16;;;;;;;0.00;0.00;;;;;;;;;;6276864;22;20050;-70
2023/04/05 00:31:43;;;;;;;0.00;0.00;;;;;;;;;;6277078;22;20024;-69
2023/04/05 00:34:11;;;;;;;0.00;0.00;;;;;;;;;;6249921;22;20023;-70
2023/04/05 00:36:39;;;;;;;1.85;1.25;;;;;;;;;;6249949;22;20043;-70
2023/04/05 00:39:06;;;;;;;0.00;0.00;;;;;;;;;;6250040;22;20020;-70
2023/04/05 00:41:35;;;;;;;0.00;0.00;;;;;;;;;;6249703;22;20034;-70
2023/04/05 00:44:02;;;;;;;0.00;0.00;;;;;;;;;;6224856;22;20022;-70
2023/04/05 00:46:33;;;;;;;0.00;0.00;;;;;;;;;;6249925;22;20011;-70
2023/04/05 00:49:01;;;;;;;0.00;0.00;;;;;;;;;;6249947;22;20032;-70
2023/04/05 00:51:30;;;;;;;0.00;0.00;;;;;;;;;;6249647;22;20024;-70
2023/04/05 00:53:58;;;;;;;0.00;0.00;;;;;;;;;;6249803;22;20108;-70
2023/04/05 00:56:27;;;;;;;0.00;0.00;;;;;;;;;;6249712;22;20012;-69
2023/04/05 00:58:54;;;;;;;0.63;0.63;;;;;;;;;;6249593;22;20020;-69
2023/04/05 01:01:23;;;;;;;0.00;0.00;;;;;;;;;;6276670;22;20027;-70
2023/04/05 01:03:58;;;;;;;0.00;0.00;;;;;;;;;;6249324;22;20031;-69
2023/04/05 01:06:26;;;;;;;0.00;0.00;;;;;;;;;;6249715;22;20082;-69
2023/04/05 01:09:02;;;;;;;0.00;0.00;;;;;;;;;;6249344;22;20098;-69
2023/04/05 01:11:31;;;;;;;0.20;0.20;;;;;;;;;;6249595;22;20525;-69
2023/04/05 01:14:02;;;;;;;1.35;1.25;;;;;;;;;;6249457;22;20449;-69
2023/04/05 01:16:29;;;;;;;0.00;0.00;;;;;;;;;;6276812;22;20493;-69
2023/04/05 01:18:57;;;;;;;0.10;0.10;;;;;;;;;;6276619;22;20091;-69
2023/04/05 01:21:32;;;;;;;0.00;0.00;;;;;;;;;;6249428;22;20409;-69
2023/04/05 01:24:15;;;;;;;0.00;0.00;;;;;;;;;;6249804;22;20020;-69
2023/04/05 01:26:53;;;;;;;0.00;0.00;;;;;;;;;;6249301;22;20061;-70
2023/04/05 01:29:40;;;;;;;0.00;0.00;;;;;;;;;;6249404;22;20095;-69
2023/04/05 01:32:15;;;;;;;0.00;0.00;;;;;;;;;;6249595;22;20057;-70
2023/04/05 01:34:47;;;;;;;20.00;2.75;;;;;;;;;;6276509;22;20019;-70
2023/04/05 01:37:17;;;;;;;0.00;0.00;;;;;;;;;;6276610;22;20023;-70
2023/04/05 01:39:47;;;;;;;5.57;2.85;;;;;;;;;;6276362;22;20120;-70
2023/04/05 01:42:14;;;;;;;0.00;0.00;;;;;;;;;;6276355;22;20081;-70
2023/04/05 01:44:42;;;;;;;0.47;0.47;;;;;;;;;;6249124;22;20019;-70
2023/04/05 01:47:09;;;;;;;0.00;0.00;;;;;;;;;;6249173;22;20020;-70
2023/04/05 01:49:37;;;;;;;0.00;0.00;;;;;;;;;;6248866;22;20327;-70
2023/04/05 01:52:05;;;;;;;0.00;0.00;;;;;;;;;;6249370;22;20020;-70
2023/04/05 01:54:32;;;;;;;0.00;0.00;;;;;;;;;;6276190;22;20024;-70
2023/04/05 01:57:00;;;;;;;0.00;0.00;;;;;;;;;;6248934;22;20038;-70
2023/04/05 01:59:27;;;;;;;0.00;0.00;;;;;;;;;;6248862;22;20012;-70
2023/04/05 02:01:55;;;;;;;0.00;0.00;;;;;;;;;;6249170;22;20024;-69
2023/04/05 02:04:22;;;;;;;0.00;0.00;;;;;;;;;;6276056;22;20449;-68
2023/04/05 02:06:50;;;;;;;0.00;0.00;;;;;;;;;;6249048;22;20016;-69
2023/04/05 02:09:18;;;;;;;0.00;0.00;;;;;;;;;;6276352;22;20023;-70
2023/04/05 02:11:45;;;;;;;0.00;0.00;;;;;;;;;;6249070;22;20345;-70
2023/04/05 02:14:13;;;;;;;0.15;0.15;;;;;;;;;;6248830;22;20110;-70
2023/04/05 02:16:41;;;;;;;0.00;0.00;;;;;;;;;;6248944;22;20019;-70
2023/04/05 02:19:12;;;;;;;0.13;0.13;;;;;;;;;;6248761;22;20031;-69
2023/04/05 02:21:39;;;;;;;0.00;0.00;;;;;;;;;;6248548;22;20107;-69
2023/04/05 02:24:08;;;;;;;0.00;0.00;;;;;;;;;;6276090;22;20030;-70
2023/04/05 02:26:37;;;;;;;0.00;0.00;;;;;;;;;;6248975;22;20043;-70
2023/04/05 02:29:05;;;;;;;0.00;0.00;;;;;;;;;;6276300;22;20019;-70
2023/04/05 02:31:32;;;;;;;0.00;0.00;;;;;;;;;;6276022;22;20027;-70
2023/04/05 02:34:00;;;;;;;0.00;0.00;;;;;;;;;;6275769;22;20057;-70
2023/04/05 02:36:28;;;;;;;1.20;1.20;;;;;;;;;;6275873;22;20398;-70
2023/04/05 02:38:55;;;;;;;0.00;0.00;;;;;;;;;;6275944;22;20039;-70
2023/04/05 02:41:24;;;;;;;0.00;0.00;;;;;;;;;;6275820;22;20011;-70
2023/04/05 02:43:52;;;;;;;0.00;0.00;;;;;;;;;;6276255;22;20016;-70
2023/04/05 02:46:20;;;;;;;0.00;0.00;;;;;;;;;;6248852;22;20019;-70
2023/04/05 02:48:47;;;;;;;0.30;0.30;;;;;;;;;;6248523;22;20438;-70
2023/04/05 02:51:16;;;;;;;0.47;0.47;;;;;;;;;;6248901;22;20016;-70
2023/04/05 02:53:44;;;;;;;0.00;0.00;;;;;;;;;;6276217;22;20384;-70
2023/04/05 02:56:14;;;;;;;0.00;0.00;;;;;;;;;;6248988;22;20450;-70
2023/04/05 02:58:47;;;;;;;1.08;1.08;;;;;;;;;;6275712;22;20015;-70
2023/04/05 03:01:21;;;;;;;0.00;0.00;;;;;;;;;;6248931;22;20020;-70
2023/04/05 03:03:49;;;;;;;0.30;0.30;;;;;;;;;;6248945;22;20023;-70
2023/04/05 03:06:19;;;;;;;0.00;0.00;;;;;;;;;;6248596;22;20027;-70
2023/04/05 03:08:48;;;;;;;0.00;0.00;;;;;;;;;;6248381;22;20353;-70
2023/04/05 03:11:24;;;;;;;0.00;0.00;;;;;;;;;;6248654;22;20331;-69
2023/04/05 03:13:56;;;;;;;30.40;3.53;;;;;;;;;;6248675;22;20353;-69
2023/04/05 03:16:50;;;;;;;0.00;0.00;;;;;;;;;;6270976;22;20106;-69
2023/04/05 03:19:26;;;;;;;0.00;0.00;;;;;;;;;;6248039;22;20073;-69
2023/04/05 03:22:00;;;;;;;0.00;0.00;;;;;;;;;;6248475;22;20016;-69
2023/04/05 03:24:35;;;;;;;0.00;0.00;;;;;;;;;;6248553;22;20019;-70
2023/04/05 03:27:06;;;;;;;0.00;0.00;;;;;;;;;;6248767;22;20024;-69
2023/04/05 03:29:41;;;;;;;0.00;0.00;;;;;;;;;;6248427;22;20020;-70
2023/04/05 03:32:16;;;;;;;0.00;0.00;;;;;;;;;;6275600;22;20020;-70
2023/04/05 03:34:50;;;;;;;0.00;0.00;;;;;;;;;;6250637;22;20042;-70
2023/04/05 03:37:20;;;;;;;0.00;0.00;;;;;;;;;;6250420;22;20023;-70
2023/04/05 03:39:58;;;;;;;0.00;0.00;;;;;;;;;;6250174;22;20094;-70
2023/04/05 03:42:25;;;;;;;0.10;0.10;;;;;;;;;;6250293;22;20020;-70
2023/04/05 03:44:54;;;;;;;0.00;0.00;;;;;;;;;;6250415;22;20031;-70
2023/04/05 03:47:21;;;;;;;0.00;0.00;;;;;;;;;;6250056;22;20102;-70
2023/04/05 03:49:51;;;;;;;0.00;0.00;;;;;;;;;;6250335;22;20026;-70
2023/04/05 03:52:18;;;;;;;0.00;0.00;;;;;;;;;;6250174;22;20062;-69
2023/04/05 03:54:46;;;;;;;0.00;0.00;;;;;;;;;;6250351;22;20476;-69
2023/04/05 03:57:17;;;;;;;0.30;0.30;;;;;;;;;;6250340;22;20054;-69
2023/04/05 03:59:49;;;;;;;0.13;0.13;;;;;;;;;;6250016;22;20023;-70
2023/04/05 04:02:17;;;;;;;0.00;0.00;;;;;;;;;;6250071;22;20065;-70
2023/04/05 04:04:46;;;;;;;0.00;0.00;;;;;;;;;;6250061;22;20023;-70
2023/04/05 04:07:14;;;;;;;0.00;0.00;;;;;;;;;;6249988;22;20023;-69
2023/04/05 04:09:41;;;;;;;0.00;0.00;;;;;;;;;;6249827;22;20073;-69
2023/04/05 04:12:11;;;;;;;0.00;0.00;;;;;;;;;;6250312;22;20016;-70
2023/04/05 04:14:48;;;;;;;0.80;0.65;;;;;;;;;;6250182;22;20054;-70
2023/04/05 04:17:35;;;;;;;1.02;1.02;;;;;;;;;;6277027;22;20030;-71
2023/04/05 04:20:29;;;;;;;0.00;0.00;;;;;;;;;;6264720;22;20028;-71
2023/04/05 04:23:18;;;;;;;0.00;0.00;;;;;;;;;;6229709;22;20111;-70
2023/04/05 04:26:15;;;;;;;0.00;0.00;;;;;;;;;;6250143;22;20467;-70
2023/04/05 04:29:12;;;;;;;0.00;0.00;;;;;;;;;;6249618;22;20016;-72
2023/04/05 04:32:00;;;;;;;0.00;0.00;;;;;;;;;;6249943;22;20472;-72
2023/04/05 04:34:53;;;;;;;0.00;0.00;;;;;;;;;;6273741;22;20020;-71
2023/04/05 04:37:45;;;;;;;0.90;0.90;;;;;;;;;;6211576;22;20450;-72
2023/04/05 04:40:52;;;;;;;0.30;0.30;;;;;;;;;;6245071;22;20024;-71
2023/04/05 04:43:36;;;;;;;0.00;0.00;;;;;;;;;;6247287;22;20502;-72
2023/04/05 04:46:17;;;;;;;0.00;0.00;;;;;;;;;;6247564;22;20016;-71
2023/04/05 04:49:16;;;;;;;0.00;0.00;;;;;;;;;;6255488;22;20519;-71
2023/04/05 04:51:47;;;;;;;0.00;0.00;;;;;;;;;;6276979;22;20020;-70
2023/04/05 04:54:19;;;;;;;2.38;2.28;;;;;;;;;;6249758;22;20039;-70
2023/04/05 04:56:47;;;;;;;0.00;0.00;;;;;;;;;;6250275;22;20342;-71
2023/04/05 04:59:14;;;;;;;0.00;0.00;;;;;;;;;;6249918;22;20012;-71
2023/04/05 05:01:44;;;;;;;1.25;1.20;;;;;;;;;;6276793;22;20350;-71
2023/04/05 05:04:12;;;;;;;1.35;1.27;;;;;;;;;;6276791;22;20022;-71
2023/04/05 05:06:41;;;;;;;0.00;0.00;;;;;;;;;;6249482;22;20361;-70
2023/04/05 05:09:08;;;;;;;0.57;0.57;;;;;;;;;;6276226;22;20102;-71
2023/04/05 05:11:58;;;;;;;3.45;2.30;;;;;;;;;;6249879;22;20061;-70
2023/04/05 05:14:25;;;;;;;0.22;0.22;;;;;;;;;;6276708;22;20024;-69
2023/04/05 05:16:53;;;;;;;0.00;0.00;;;;;;;;;;6276972;22;20026;-70
2023/04/05 05:19:21;;;;;;;0.00;0.00;;;;;;;;;;6249447;22;20024;-70
2023/04/05 05:21:53;;;;;;;3.42;2.17;;;;;;;;;;6249390;22;20020;-70
2023/04/05 05:24:21;;;;;;;0.00;0.00;;;;;;;;;;6276671;22;20367;-70
2023/04/05 05:26:48;;;;;;;0.00;0.00;;;;;;;;;;6276816;22;20097;-70
2023/04/05 05:29:18;;;;;;;0.00;0.00;;;;;;;;;;6249261;22;20011;-70
2023/04/05 05:31:46;;;;;;;0.00;0.00;;;;;;;;;;6249555;22;20043;-70
2023/04/05 05:34:14;;;;;;;0.00;0.00;;;;;;;;;;6276391;22;20069;-70
2023/04/05 05:36:48;;;;;;;0.00;0.00;;;;;;;;;;6249130;22;20024;-70
2023/04/05 05:39:15;;;;;;;0.00;0.00;;;;;;;;;;6276376;22;20043;-70
2023/04/05 05:41:43;;;;;;;0.00;0.00;;;;;;;;;;6276489;22;20065;-70
2023/04/05 05:44:11;;;;;;;0.00;0.00;;;;;;;;;;6276675;22;20015;-70
2023/04/05 05:46:38;;;;;;;0.00;0.00;;;;;;;;;;6276282;22;20035;-70
2023/04/05 05:49:06;;;;;;;0.10;0.10;;;;;;;;;;6276323;22;20357;-70
2023/04/05 05:51:34;;;;;;;0.00;0.00;;;;;;;;;;6276318;22;20073;-71
2023/04/05 05:54:02;;;;;;;0.63;0.63;;;;;;;;;;6276361;22;20091;-70
2023/04/05 05:56:30;;;;;;;0.00;0.00;;;;;;;;;;6249304;22;20384;-70
2023/04/05 05:58:58;;;;;;;0.03;0.03;;;;;;;;;;6276247;22;20095;-70
2023/04/05 06:01:26;;;;;;;0.05;0.05;;;;;;;;;;6276182;22;20045;-70
2023/04/05 06:03:55;;;;;;;0.00;0.00;;;;;;;;;;6276297;22;20495;-70
2023/04/05 06:06:22;;;;;;;0.00;0.00;;;;;;;;;;6249156;22;20019;-70
2023/04/05 06:08:50;;;;;;;0.00;0.00;;;;;;;;;;6276125;22;20083;-70
2023/04/05 06:11:21;;;;;;;0.20;0.20;;;;;;;;;;6276141;22;20019;-70
2023/04/05 06:13:54;;;;;;;0.55;0.55;;;;;;;;;;6276208;22;20022;-70
2023/04/05 06:16:21;;;;;;;0.00;0.00;;;;;;;;;;6275974;22;20012;-70
2023/04/05 06:18:49;;;;;;;1.27;1.25;;;;;;;;;;6276029;22;20022;-70
2023/04/05 06:21:16;;;;;;;0.40;0.40;;;;;;;;;;6275991;22;20022;-71
2023/04/05 06:23:44;;;;;;;1.10;1.00;;;;;;;;;;6275999;22;20065;-70
2023/04/05 06:26:23;;;;;;;67.70;26.35;;;;;;;;;;6275945;22;20114;-71
2023/04/05 06:28:50;;;;;;;63.30;23.80;;;;;;;;;;6275970;22;19922;-70
2023/04/05 06:31:18;;;;;;;;;;;;;;;;;;6276025;22;20040;-71
2023/04/05 06:33:45;;;;;;;;;;;;;;;;;;6276389;22;20064;-71
2023/04/05 06:36:12;;;;;;;;;;;;;;;;;;6275712;22;25042;-71
2023/04/05 06:38:40;;;;;;;;;;;;;;;;;;6275609;22;25040;-70
2023/04/05 06:41:07;;;;;;;;;;;;;;;;;;6275928;22;20211;-70
2023/04/05 06:43:34;;;;;;;;;;;;;;;;;;6275947;22;25063;-70
2023/04/05 06:46:02;;;;;;;;;;;;;;;;;;6275698;22;25034;-70
2023/04/05 06:48:30;;;;;;;;;;;;;;;;;;6276248;22;20390;-70
2023/04/05 06:50:57;;;;;;;;;;;;;;;;;;6274509;22;20269;-70
2023/04/05 06:53:26;;;;;;;;;;;;;;;;;;6274421;22;19945;-71
2023/04/05 06:55:53;;;;;;;;;;;;;;;;;;6273904;22;19915;-70
2023/04/05 06:58:21;;;;;;;;;;;;;;;;;;6274465;22;19968;-71
2023/04/05 07:00:48;;;;;;;;;;;;;;;;;;6274012;22;19989;-70
2023/04/05 07:03:15;;;;;;;;;;;;;;;;;;6274691;22;24047;-70
2023/04/05 07:05:43;;;;;;;;;;;;;;;;;;6274906;22;20379;-70
2023/04/05 07:08:10;;;;;;;;;;;;;;;;;;6276221;22;20326;-70
2023/04/05 07:10:37;;;;;;;;;;;;;;;;;;6277806;22;19921;-70
2023/04/05 07:13:05;;;;;;;;;;;;;;;;;;6277853;22;20413;-71
2023/04/05 07:15:33;;;;;;;;;;;;;;;;;;6277738;22;19915;-70
2023/04/05 07:18:00;;;;;;;;;;;;;;;;;;6277382;22;19915;-71
2023/04/05 07:20:27;;;;;;;;;;;;;;;;;;6277819;22;19915;-71
2023/04/05 07:22:56;;;;;;;;;;;;;;;;;;6277772;22;19915;-71
2023/04/05 07:25:24;;;;;;;;;;;;;;;;;;6277823;22;24087;-71
2023/04/05 07:27:51;;;;;;;;;;;;;;;;;;6278118;22;19919;-71
2023/04/05 07:30:19;;;;;;;;;;;;;;;;;;6277959;22;19915;-70
2023/04/05 07:32:46;;;;;;;;;;;;;;;;;;6278049;22;20332;-71
2023/04/05 07:35:14;;;;;;;;;;;;;;;;;;6278023;22;19982;-71
2023/04/05 07:37:41;;;;;;;;;;;;;;;;;;6278129;22;20442;-70
2023/04/05 07:40:10;;;;;;;;;;;;;;;;;;6278064;22;19915;-70
2023/04/05 07:42:37;;;;;;;;;;;;;;;;;;6278098;22;20332;-70
2023/04/05 07:45:04;;;;;;;;;;;;;;;;;;6278404;22;19915;-70
2023/04/05 07:47:32;;;;;;;;;;;;;;;;;;6278005;22;20284;-71
2023/04/05 07:49:59;;;;;;;;;;;;;;;;;;6277887;22;20288;-71
2023/04/05 07:52:26;;;;;;;;;;;;;;;;;;6277925;22;20295;-70
2023/04/05 07:54:54;;;;;;;;;;;;;;;;;;6277816;22;19915;-71
2023/04/05 07:57:21;;;;;;;;;;;;;;;;;;6276925;22;19942;-71
2023/04/05 07:59:53;;;;;;;11.98;9.15;;;;;;;;;;6275988;22;24047;-70
2023/04/05 08:02:21;;;;;;;12.50;10.23;;;;;;;;;;6277485;22;20341;-71
2023/04/05 08:04:48;;;;;;;11.88;9.30;;;;;;;;;;6277943;22;20016;-70
2023/04/05 08:07:16;;;;;;;13.82;9.93;;;;;;;;;;6277658;22;20089;-71
2023/04/05 08:09:43;;;;;;;12.77;9.48;;;;;;;;;;6277783;22;20342;-71
2023/04/05 08:12:11;;;;;;;11.85;9.55;;;;;;;;;;6277471;22;20464;-70
2023/04/05 08:14:39;;;;;;;14.95;10.38;;;;;;;;;;6277123;22;20039;-70
2023/04/05 08:17:06;;;;;;;10.35;8.82;;;;;;;;;;6277051;22;20082;-70
2023/04/05 08:19:33;;;;;;;12.05;9.55;;;;;;;;;;6276904;22;20065;-70
2023/04/05 08:22:01;;;;;;;9.95;8.18;;;;;;;;;;6277173;22;20341;-70
2023/04/05 08:24:29;;;;;;;12.15;9.77;;;;;;;;;;6277444;22;20016;-70
2023/04/05 08:26:56;;;;;;;12.48;10.35;;;;;;;;;;6277136;22;20042;-70
2023/04/05 08:29:24;;;;;;;10.07;8.98;;;;;;;;;;6250204;22;20023;-71
2023/04/05 08:31:51;;;;;;;9.35;8.38;;;;;;;;;;6277384;22;20015;-71
2023/04/05 08:34:19;;;;;;;10.00;8.57;;;;;;;;;;6277182;22;20315;-70
2023/04/05 08:36:46;;;;;;;11.10;9.05;;;;;;;;;;6276949;22;20069;-70
2023/04/05 08:39:15;;;;;;;11.98;9.68;;;;;;;;;;6277114;22;20011;-71
2023/04/05 08:41:47;;;;;;;14.90;10.50;;;;;;;;;;6277204;22;20365;-70
2023/04/05 08:44:15;;;;;;;14.48;9.77;;;;;;;;;;6277381;22;20019;-70
2023/04/05 08:46:43;;;;;;;19.80;15.68;;;;;;;;;;6277117;22;20016;-70
2023/04/05 08:49:11;;;;;;;10.50;9.38;;;;;;;;;;6276961;22;20497;-71
2023/04/05 08:51:38;;;;;;;12.23;9.85;;;;;;;;;;6276948;22;20044;-70
2023/04/05 08:54:06;;;;;;;14.88;11.48;;;;;;;;;;6276985;22;20011;-70
2023/04/05 08:56:34;;;;;;;10.05;8.68;;;;;;;;;;6276780;22;20046;-70
2023/04/05 08:59:04;;;;;;;10.27;8.80;;;;;;;;;;6276802;22;20038;-70
2023/04/05 09:01:33;;;;;;;10.23;7.50;;;;;;;;;;6277065;22;20402;-70
2023/04/05 09:04:02;;;;;;;8.93;7.80;;;;;;;;;;6276616;22;20022;-70
2023/04/05 09:06:29;;;;;;;8.63;7.18;;;;;;;;;;6277003;22;20019;-70
2023/04/05 09:08:57;;;;;;;9.40;7.63;;;;;;;;;;6276774;22;20058;-70
2023/04/05 09:11:25;;;;;;;8.98;7.05;;;;;;;;;;6277065;22;20015;-70
2023/04/05 09:13:52;;;;;;;7.40;6.60;;;;;;;;;;6276559;22;20022;-70
2023/04/05 09:16:20;;;;;;;6.85;5.90;;;;;;;;;;6276937;22;20020;-69
2023/04/05 09:18:48;;;;;;;5.90;5.30;;;;;;;;;;6276390;22;20085;-69
2023/04/05 09:21:16;;;;;;;5.50;4.68;;;;;;;;;;6276273;22;20019;-69
2023/04/05 09:23:54;;;;;;;6.03;4.75;;;;;;;;;;6276548;22;20015;-70
2023/04/05 09:26:23;;;;;;;5.53;4.70;;;;;;;;;;6276407;22;20023;-69
2023/04/05 09:29:00;;;;;;;5.03;4.53;;;;;;;;;;6249327;22;20020;-70
2023/04/05 09:31:31;;;;;;;5.60;4.35;;;;;;;;;;6249224;22;20054;-69
2023/04/05 09:34:03;;;;;;;5.78;4.47;;;;;;;;;;6276528;22;20015;-70
2023/04/05 09:36:32;;;;;;;5.93;4.53;;;;;;;;;;6276393;22;20015;-70
2023/04/05 09:39:07;;;;;;;5.97;4.60;;;;;;;;;;6276452;22;20380;-69
2023/04/05 09:41:35;;;;;;;4.88;4.38;;;;;;;;;;6276502;22;20107;-69
2023/04/05 09:44:03;;;;;;;4.95;4.00;;;;;;;;;;6276507;22;20016;-69
2023/04/05 09:46:32;;;;;;;5.20;3.80;;;;;;;;;;6276897;22;20026;-70
2023/04/05 09:49:02;;;;;;;5.47;4.18;;;;;;;;;;6276560;22;20018;-69
2023/04/05 09:51:33;;;;;;;5.25;3.90;;;;;;;;;;6276222;22;20019;-69
2023/04/05 09:54:05;;;;;;;4.72;3.95;;;;;;;;;;6249736;22;20026;-69
2023/04/05 09:56:36;;;;;;;6.50;3.80;;;;;;;;;;6276393;22;20018;-68
2023/04/05 09:59:09;;;;;;;4.40;3.33;;;;;;;;;;6276384;22;20050;-70
2023/04/05 10:01:38;;;;;;;4.55;3.90;;;;;;;;;;6249479;22;20043;-70
2023/04/05 10:04:08;;;;;;;5.28;3.63;;;;;;;;;;6276119;22;20069;-71
2023/04/05 10:06:36;;;;;;;6.13;3.80;;;;;;;;;;6276537;22;20346;-70
2023/04/05 10:09:05;;;;;;;6.22;3.80;;;;;;;;;;6276478;22;20020;-70
2023/04/05 10:11:33;;;;;;;5.22;4.05;;;;;;;;;;6275914;22;20019;-70
2023/04/05 10:14:02;;;;;;;5.03;3.72;;;;;;;;;;6276171;22;20035;-70
2023/04/05 10:16:33;;;;;;;4.60;3.90;;;;;;;;;;6276277;22;20019;-71
2023/04/05 10:19:02;;;;;;;6.55;4.28;;;;;;;;;;6276057;22;20020;-70
2023/04/05 10:21:31;;;;;;;4.45;4.03;;;;;;;;;;6276016;22;20023;-70
2023/04/05 10:24:13;;;;;;;6.03;4.50;;;;;;;;;;6276061;22;20022;-70
2023/04/05 10:26:47;;;;;;;6.05;3.92;;;;;;;;;;6276007;22;20442;-70
2023/04/05 10:29:19;;;;;;;5.80;4.43;;;;;;;;;;6276014;22;20090;-70
2023/04/05 10:31:51;;;;;;;5.22;3.75;;;;;;;;;;6276284;22;20445;-69
2023/04/05 10:34:24;;;;;;;5.30;3.90;;;;;;;;;;6275984;22;20019;-70
2023/04/05 10:37:02;;;;;;;5.28;4.43;;;;;;;;;;6275983;22;20023;-70
2023/04/05 10:39:39;;;;;;;4.50;4.10;;;;;;;;;;6275981;22;20015;-69
2023/04/05 10:42:10;;;;;;;4.70;3.90;;;;;;;;;;6248678;22;20015;-70
2023/04/05 10:44:39;;;;;;;7.28;4.25;;;;;;;;;;6275672;22;20030;-69
2023/04/05 10:47:06;;;;;;;5.47;3.80;;;;;;;;;;6275777;22;20381;-70
2023/04/05 10:49:39;;;;;;;7.07;4.20;;;;;;;;;;6275967;22;20442;-70
2023/04/05 10:52:07;;;;;;;4.63;3.50;;;;;;;;;;6275694;22;20464;-70
2023/04/05 10:54:35;;;;;;;4.22;3.83;;;;;;;;;;6275783;22;20012;-69
2023/04/05 10:57:08;;;;;;;4.65;3.78;;;;;;;;;;6275855;22;20031;-70
2023/04/05 10:59:41;;;;;;;5.78;4.32;;;;;;;;;;6275828;22;20098;-69
2023/04/05 11:02:09;;;;;;;6.05;4.53;;;;;;;;;;6275800;22;20043;-70
2023/04/05 11:04:37;;;;;;;6.47;4.68;;;;;;;;;;6275602;22;20473;-69
2023/04/05 11:07:15;;;;;;;3.47;3.17;;;;;;;;;;6275676;22;20015;-70
2023/04/05 11:09:54;;;;;;;6.07;3.50;;;;;;;;;;6275757;22;20011;-70
2023/04/05 11:12:42;;;;;;;4.20;3.47;;;;;;;;;;6275545;22;20091;-70
2023/04/05 11:15:28;;;;;;;4.03;3.63;;;;;;;;;;6260196;22;20015;-70
2023/04/05 11:18:03;;;;;;;5.50;4.05;;;;;;;;;;6275322;22;20065;-70
2023/04/05 11:20:43;;;;;;;5.55;4.03;;;;;;;;;;6275714;22;20042;-70
2023/04/05 11:23:11;;;;;;;4.30;3.90;;;;;;;;;;6275756;22;20012;-70
2023/04/05 11:25:40;;;;;;;3.92;3.58;;;;;;;;;;6275797;22;20093;-70
2023/04/05 11:28:08;;;;;;;4.05;3.65;;;;;;;;;;6275892;22;20012;-70
2023/04/05 11:30:50;;;;;;;5.93;3.90;;;;;;;;;;6275482;22;20315;-69
2023/04/05 11:33:36;;;;;;;7.45;4.25;;;;;;;;;;6275621;22;20015;-69
2023/04/05 11:36:05;;;;;;;6.93;4.07;;;;;;;;;;6276001;22;20027;-70
2023/04/05 11:38:32;;;;;;;4.40;3.85;;;;;;;;;;6275730;22;20016;-70
2023/04/05 11:41:12;;;;;;;5.10;3.92;;;;;;;;;;6275905;22;20011;-70
2023/04/05 11:43:41;;;;;;;4.75;4.20;;;;;;;;;;6275976;22;20445;-70
2023/04/05 11:46:09;;;;;;;6.10;4.18;;;;;;;;;;6275656;22;20027;-70
2023/04/05 11:48:36;;;;;;;6.13;4.82;;;;;;;;;;6275572;22;20110;-70
2023/04/05 11:51:11;;;;;;;6.07;4.40;;;;;;;;;;6275540;22;20012;-70
2023/04/05 11:53:38;;;;;;;5.70;4.70;;;;;;;;;;6275752;22;20385;-70
2023/04/05 11:56:07;;;;;;;5.47;4.63;;;;;;;;;;6277386;22;20011;-74
2023/04/05 11:58:36;;;;;;;6.05;4.45;;;;;;;;;;6277430;22;20063;-76
2023/04/05 12:01:06;;;;;;;4.72;4.15;;;;;;;;;;6250624;22;20462;-76
2023/04/05 12:03:34;;;;;;;5.18;4.35;;;;;;;;;;6277525;22;20016;-73
2023/04/05 12:06:03;;;;;;;5.80;4.25;;;;;;;;;;6276688;22;20022;-71
2023/04/05 12:08:49;;;;;;;5.35;4.20;;;;;;;;;;6276852;22;20012;-72
2023/04/05 12:11:23;;;;;;;5.82;4.68;;;;;;;;;;6276923;22;20015;-74
2023/04/05 12:13:54;;;;;;;5.30;4.45;;;;;;;;;;6277043;22;20038;-73
2023/04/05 12:16:21;;;;;;;6.43;4.57;;;;;;;;;;6276660;22;20102;-72
2023/04/05 12:18:59;;;;;;;5.65;4.97;;;;;;;;;;6276926;22;20050;-72
2023/04/05 12:21:27;;;;;;;5.35;4.18;;;;;;;;;;6276212;22;20323;-73
2023/04/05 12:23:55;;;;;;;5.88;4.78;;;;;;;;;;6277076;22;20058;-73
2023/04/05 12:26:23;;;;;;;6.82;4.97;;;;;;;;;;6276606;22;20083;-73
2023/04/05 12:28:54;;;;;;;5.72;4.85;;;;;;;;;;6276882;22;20070;-73
2023/04/05 12:31:35;;;;;;;7.40;4.72;;;;;;;;;;6276652;22;20054;-73
2023/04/05 12:34:03;;;;;;;5.88;4.30;;;;;;;;;;6276810;22;20381;-73
2023/04/05 12:36:31;;;;;;;5.15;4.40;;;;;;;;;;6276893;22;20346;-73
2023/04/05 12:38:59;;;;;;;6.28;4.30;;;;;;;;;;6276751;22;20035;-73
2023/04/05 12:41:28;;;;;;;5.32;4.18;;;;;;;;;;6277004;22;20015;-72
2023/04/05 12:44:00;;;;;;;6.00;4.50;;;;;;;;;;6276947;22;20043;-74
2023/04/05 12:46:44;;;;;;;4.97;4.38;;;;;;;;;;6250266;22;20434;-73
2023/04/05 12:49:16;;;;;;;7.18;4.13;;;;;;;;;;6277176;22;20369;-73
2023/04/05 12:51:44;;;;;;;5.75;4.40;;;;;;;;;;6276887;22;20120;-74
2023/04/05 12:54:20;;;;;;;5.97;4.45;;;;;;;;;;6276754;22;20016;-74
2023/04/05 12:56:53;;;;;;;5.43;4.88;;;;;;;;;;6276876;22;20083;-74
2023/04/05 12:59:21;;;;;;;5.28;4.32;;;;;;;;;;6276809;22;20016;-73
2023/04/05 13:01:48;;;;;;;5.03;4.35;;;;;;;;;;6276680;22;20012;-73
2023/04/05 13:04:16;;;;;;;5.28;4.30;;;;;;;;;;6276453;22;20023;-74
2023/04/05 13:06:46;;;;;;;4.50;3.90;;;;;;;;;;6276624;22;20125;-74
2023/04/05 13:09:14;;;;;;;4.65;3.92;;;;;;;;;;6276520;22;20019;-72
2023/04/05 13:11:42;;;;;;;4.55;4.10;;;;;;;;;;6276742;22;20046;-72
2023/04/05 13:14:09;;;;;;;4.85;4.13;;;;;;;;;;6249464;22;20023;-72
2023/04/05 13:16:37;;;;;;;5.60;3.75;;;;;;;;;;6276612;22;20020;-74
2023/04/05 13:19:04;;;;;;;5.03;3.83;;;;;;;;;;6276504;22;20350;-72
2023/04/05 13:21:32;;;;;;;4.45;3.97;;;;;;;;;;6275808;22;20051;-72
2023/04/05 13:24:00;;;;;;;4.32;3.90;;;;;;;;;;6276050;22;20015;-72
2023/04/05 13:26:27;;;;;;;5.68;4.00;;;;;;;;;;6276401;22;20079;-75
2023/04/05 13:28:55;;;;;;;4.03;3.60;;;;;;;;;;6276545;22;20066;-71
2023/04/05 13:31:22;;;;;;;6.00;3.90;;;;;;;;;;6276017;22;20066;-72
2023/04/05 13:33:50;;;;;;;4.60;4.10;;;;;;;;;;6276100;22;20011;-73
2023/04/05 13:36:17;;;;;;;6.25;3.90;;;;;;;;;;6276390;22;20090;-72
2023/04/05 13:38:45;;;;;;;5.88;4.22;;;;;;;;;;6276033;22;20314;-72
2023/04/05 13:41:14;;;;;;;5.03;3.92;;;;;;;;;;6275257;22;20019;-72
2023/04/05 13:43:42;;;;;;;4.60;3.85;;;;;;;;;;6275803;22;20015;-71
2023/04/05 13:46:09;;;;;;;7.28;3.92;;;;;;;;;;6276034;22;20353;-79
2023/04/05 13:48:37;;;;;;;6.05;4.20;;;;;;;;;;6223996;22;20011;-68
2023/04/05 13:51:05;;;;;;;6.38;4.70;;;;;;;;;;6275874;22;20023;-66
2023/04/05 13:53:32;;;;;;;6.28;4.72;;;;;;;;;;6275865;22;20020;-66
2023/04/05 13:56:00;;;;;;;6.07;4.85;;;;;;;;;;6275584;22;20011;-67
2023/04/05 13:58:27;;;;;;;4.90;4.40;;;;;;;;;;6275931;22;20019;-66
2023/04/05 14:00:55;;;;;;;4.93;4.43;;;;;;;;;;6275824;22;20384;-66
2023/04/05 14:03:22;;;;;;;5.75;4.70;;;;;;;;;;6275757;22;20024;-66
2023/04/05 14:05:50;;;;;;;7.38;5.07;;;;;;;;;;6276151;22;20016;-69
2023/04/05 14:08:21;;;;;;;6.22;4.82;;;;;;;;;;6275865;22;20402;-69
2023/04/05 14:10:49;;;;;;;5.88;5.22;;;;;;;;;;6275543;22;20023;-69
2023/04/05 14:13:16;;;;;;;5.72;5.20;;;;;;;;;;6275462;22;20342;-68
2023/04/05 14:15:44;;;;;;;12.13;9.15;;;;;;;;;;6275896;22;20020;-69
2023/04/05 14:18:11;;;;;;;6.97;6.28;;;;;;;;;;6275226;22;20016;-69
2023/04/05 14:20:39;;;;;;;7.32;6.28;;;;;;;;;;6274980;22;20019;-67
2023/04/05 14:23:07;;;;;;;7.10;6.40;;;;;;;;;;6275467;22;20701;-67
2023/04/05 14:25:35;;;;;;;7.28;5.90;;;;;;;;;;6248751;22;20091;-69
2023/04/05 14:28:02;;;;;;;7.57;6.72;;;;;;;;;;6275587;22;20062;-69
2023/04/05 14:30:30;;;;;;;9.80;6.38;;;;;;;;;;6275538;22;20026;-69
2023/04/05 14:32:57;;;;;;;7.82;6.25;;;;;;;;;;6275148;22;20019;-67
2023/04/05 14:35:25;;;;;;;7.97;6.78;;;;;;;;;;6248334;22;20103;-68
2023/04/05 14:37:53;;;;;;;9.27;7.50;;;;;;;;;;6275533;22;20023;-66
2023/04/05 14:40:20;;;;;;;9.85;7.38;;;;;;;;;;6275327;22;20016;-66
2023/04/05 14:42:48;;;;;;;8.32;7.47;;;;;;;;;;6275351;22;20019;-68
2023/04/05 14:45:17;;;;;;;9.43;8.43;;;;;;;;;;6275441;22;20449;-68
2023/04/05 14:47:45;;;;;;;8.55;7.65;;;;;;;;;;6248698;22;20016;-68
2023/04/05 14:50:12;;;;;;;9.52;7.70;;;;;;;;;;6275581;22;20065;-67
2023/04/05 14:52:40;;;;;;;10.57;7.07;;;;;;;;;;6275721;22;20016;-67
2023/04/05 14:55:07;;;;;;;9.00;7.88;;;;;;;;;;6275314;22;20022;-68
2023/04/05 14:57:35;;;;;;;14.45;7.45;;;;;;;;;;6275346;22;20020;-68
2023/04/05 15:00:03;;;;;;;8.10;7.07;;;;;;;;;;6275507;22;20020;-68
2023/04/05 15:02:31;;;;;;;8.05;7.25;;;;;;;;;;6275112;22;20027;-67
2023/04/05 15:04:59;;;;;;;9.75;7.68;;;;;;;;;;6275472;22;20023;-67
2023/04/05 15:07:27;;;;;;;8.65;7.22;;;;;;;;;;6275487;22;20023;-67
2023/04/05 15:09:55;;;;;;;11.68;9.30;;;;;;;;;;6248767;22;20118;-67
2023/04/05 15:12:23;;;;;;;10.27;9.00;;;;;;;;;;6248598;22;20015;-68